sensor_id;sensor_type;location;lat;lon;timestamp;P1;durP1;ratioP1;P2;durP2;ratioP2
7693;SDS011;3889;48.162;11.510;2022-12-31T00:00:49;0.67;;;0.53;;
7693;SDS011;3889;48.162;11.510;2022-12-31T00:03:17;0.77;;;0.60;;
7693;SDS011;3889;48.162;11.510;2022-12-31T00:05:45;0.80;;;0.80;;
7693;SDS011;3889;48.162;11.510;2022-12-31T00:08:12;0.60;;;0.60;;
7693;SDS011;3889;48.162;11.510;2022-12-31T00:10:40;0.60;;;0.60;;
7693;SDS011;3889;48.162;11.510;2022-12-31T00:13:09;0.63;;;0.57;;
7693;SDS011;3889;48.162;11.510;2022-12-31T00:15:37;0.70;;;0.60;;
7693;SDS011;3889;48.162;11.510;2022-12-31T00:18:08;0.70;;;0.70;;
7693;SDS011;3889;48.162;11.510;2022-12-31T00:20:37;0.60;;;0.60;;
7693;SDS011;3889;48.162;11.510;2022-12-31T00:23:07;0.60;;;0.60;;
7693;SDS011;3889;48.162;11.510;2022-12-31T00:25:35;0.90;;;0.63;;
7693;SDS011;3889;48.162;11.510;2022-12-31T00:28:03;0.50;;;0.50;;
7693;SDS011;3889;48.162;11.510;2022-12-31T00:30:32;0.60;;;0.60;;
7693;SDS011;3889;48.162;11.510;2022-12-31T00:33:00;0.70;;;0.70;;
7693;SDS011;3889;48.162;11.510;2022-12-31T00:35:29;0.50;;;0.50;;
7693;SDS011;3889;48.162;11.510;2022-12-31T00:37:59;0.50;;;0.50;;
7693;SDS011;3889;48.162;11.510;2022-12-31T00:40:27;0.57;;;0.57;;
7693;SDS011;3889;48.162;11.510;2022-12-31T00:42:55;0.60;;;0.60;;
7693;SDS011;3889;48.162;11.510;2022-12-31T00:45:23;0.60;;;0.60;;
7693;SDS011;3889;48.162;11.510;2022-12-31T00:47:51;0.60;;;0.60;;
7693;SDS011;3889;48.162;11.510;2022-12-31T00:50:18;0.50;;;0.50;;
7693;SDS011;3889;48.162;11.510;2022-12-31T00:52:48;1.05;;;0.60;;
7693;SDS011;3889;48.162;11.510;2022-12-31T00:55:15;0.52;;;0.52;;
7693;SDS011;3889;48.162;11.510;2022-12-31T00:57:43;0.50;;;0.50;;
7693;SDS011;3889;48.162;11.510;2022-12-31T01:00:11;0.60;;;0.60;;
7693;SDS011;3889;48.162;11.510;2022-12-31T01:02:40;0.70;;;0.50;;
7693;SDS011;3889;48.162;11.510;2022-12-31T01:05:08;0.50;;;0.50;;
7693;SDS011;3889;48.162;11.510;2022-12-31T01:07:36;0.77;;;0.68;;
7693;SDS011;3889;48.162;11.510;2022-12-31T01:10:06;0.60;;;0.60;;
7693;SDS011;3889;48.162;11.510;2022-12-31T01:12:34;0.70;;;0.50;;
7693;SDS011;3889;48.162;11.510;2022-12-31T01:15:02;0.50;;;0.50;;
7693;SDS011;3889;48.162;11.510;2022-12-31T01:17:31;0.95;;;0.60;;
7693;SDS011;3889;48.162;11.510;2022-12-31T01:20:00;0.65;;;0.60;;
7693;SDS011;3889;48.162;11.510;2022-12-31T01:22:28;1.25;;;0.52;;
7693;SDS011;3889;48.162;11.510;2022-12-31T01:24:56;0.50;;;0.50;;
7693;SDS011;3889;48.162;11.510;2022-12-31T01:27:25;0.63;;;0.50;;
7693;SDS011;3889;48.162;11.510;2022-12-31T01:29:53;0.60;;;0.60;;
7693;SDS011;3889;48.162;11.510;2022-12-31T01:32:20;0.60;;;0.60;;
7693;SDS011;3889;48.162;11.510;2022-12-31T01:34:48;0.60;;;0.60;;
7693;SDS011;3889;48.162;11.510;2022-12-31T01:37:16;0.50;;;0.50;;
7693;SDS011;3889;48.162;11.510;2022-12-31T01:39:44;0.50;;;0.50;;
7693;SDS011;3889;48.162;11.510;2022-12-31T01:42:12;0.70;;;0.70;;
7693;SDS011;3889;48.162;11.510;2022-12-31T01:44:51;0.60;;;0.60;;
7693;SDS011;3889;48.162;11.510;2022-12-31T01:47:33;0.60;;;0.60;;
7693;SDS011;3889;48.162;11.510;2022-12-31T01:50:09;0.80;;;0.80;;
7693;SDS011;3889;48.162;11.510;2022-12-31T01:52:41;0.60;;;0.60;;
7693;SDS011;3889;48.162;11.510;2022-12-31T01:55:14;0.50;;;0.50;;
7693;SDS011;3889;48.162;11.510;2022-12-31T01:57:44;0.50;;;0.50;;
7693;SDS011;3889;48.162;11.510;2022-12-31T02:00:17;0.90;;;0.80;;
7693;SDS011;3889;48.162;11.510;2022-12-31T02:02:45;0.60;;;0.60;;
7693;SDS011;3889;48.162;11.510;2022-12-31T02:05:16;0.52;;;0.52;;
7693;SDS011;3889;48.162;11.510;2022-12-31T02:07:48;0.55;;;0.55;;
7693;SDS011;3889;48.162;11.510;2022-12-31T02:10:16;0.53;;;0.53;;
7693;SDS011;3889;48.162;11.510;2022-12-31T02:12:44;1.20;;;0.50;;
7693;SDS011;3889;48.162;11.510;2022-12-31T02:15:13;0.70;;;0.60;;
7693;SDS011;3889;48.162;11.510;2022-12-31T02:20:48;0.40;;;0.40;;
7693;SDS011;3889;48.162;11.510;2022-12-31T02:26:48;0.60;;;0.60;;
7693;SDS011;3889;48.162;11.510;2022-12-31T02:29:28;0.50;;;0.50;;
7693;SDS011;3889;48.162;11.510;2022-12-31T02:32:28;0.52;;;0.52;;
7693;SDS011;3889;48.162;11.510;2022-12-31T02:35:04;0.50;;;0.50;;
7693;SDS011;3889;48.162;11.510;2022-12-31T02:37:36;0.50;;;0.50;;
7693;SDS011;3889;48.162;11.510;2022-12-31T02:40:07;0.50;;;0.50;;
7693;SDS011;3889;48.162;11.510;2022-12-31T02:42:40;0.40;;;0.40;;
7693;SDS011;3889;48.162;11.510;2022-12-31T02:45:08;0.40;;;0.40;;
7693;SDS011;3889;48.162;11.510;2022-12-31T02:47:46;0.60;;;0.60;;
7693;SDS011;3889;48.162;11.510;2022-12-31T02:50:28;0.47;;;0.47;;
7693;SDS011;3889;48.162;11.510;2022-12-31T02:53:09;0.90;;;0.50;;
7693;SDS011;3889;48.162;11.510;2022-12-31T02:55:48;0.50;;;0.50;;
7693;SDS011;3889;48.162;11.510;2022-12-31T02:58:22;1.20;;;0.60;;
7693;SDS011;3889;48.162;11.510;2022-12-31T03:01:17;0.50;;;0.50;;
7693;SDS011;3889;48.162;11.510;2022-12-31T03:04:11;0.55;;;0.55;;
7693;SDS011;3889;48.162;11.510;2022-12-31T03:06:58;0.50;;;0.50;;
7693;SDS011;3889;48.162;11.510;2022-12-31T03:09:27;0.63;;;0.63;;
7693;SDS011;3889;48.162;11.510;2022-12-31T03:11:55;0.80;;;0.50;;
7693;SDS011;3889;48.162;11.510;2022-12-31T03:14:41;0.50;;;0.50;;
7693;SDS011;3889;48.162;11.510;2022-12-31T03:17:08;0.60;;;0.60;;
7693;SDS011;3889;48.162;11.510;2022-12-31T03:19:38;0.50;;;0.50;;
7693;SDS011;3889;48.162;11.510;2022-12-31T03:22:23;0.50;;;0.50;;
7693;SDS011;3889;48.162;11.510;2022-12-31T03:24:55;0.50;;;0.50;;
7693;SDS011;3889;48.162;11.510;2022-12-31T03:27:42;0.50;;;0.50;;
7693;SDS011;3889;48.162;11.510;2022-12-31T03:30:10;0.50;;;0.50;;
7693;SDS011;3889;48.162;11.510;2022-12-31T03:32:41;0.50;;;0.50;;
7693;SDS011;3889;48.162;11.510;2022-12-31T03:35:11;0.60;;;0.60;;
7693;SDS011;3889;48.162;11.510;2022-12-31T03:37:40;1.10;;;0.60;;
7693;SDS011;3889;48.162;11.510;2022-12-31T03:40:09;1.08;;;0.60;;
7693;SDS011;3889;48.162;11.510;2022-12-31T03:42:39;0.50;;;0.50;;
7693;SDS011;3889;48.162;11.510;2022-12-31T03:45:08;0.50;;;0.50;;
7693;SDS011;3889;48.162;11.510;2022-12-31T03:47:37;0.52;;;0.50;;
7693;SDS011;3889;48.162;11.510;2022-12-31T03:50:05;0.47;;;0.47;;
7693;SDS011;3889;48.162;11.510;2022-12-31T03:52:35;0.60;;;0.60;;
7693;SDS011;3889;48.162;11.510;2022-12-31T03:55:04;0.50;;;0.50;;
7693;SDS011;3889;48.162;11.510;2022-12-31T03:57:33;0.43;;;0.43;;
7693;SDS011;3889;48.162;11.510;2022-12-31T04:00:01;0.50;;;0.50;;
7693;SDS011;3889;48.162;11.510;2022-12-31T04:02:30;0.50;;;0.50;;
7693;SDS011;3889;48.162;11.510;2022-12-31T04:04:58;0.40;;;0.40;;
7693;SDS011;3889;48.162;11.510;2022-12-31T04:07:25;0.50;;;0.50;;
7693;SDS011;3889;48.162;11.510;2022-12-31T04:09:55;0.50;;;0.50;;
7693;SDS011;3889;48.162;11.510;2022-12-31T04:12:24;0.50;;;0.50;;
7693;SDS011;3889;48.162;11.510;2022-12-31T04:14:51;0.70;;;0.43;;
7693;SDS011;3889;48.162;11.510;2022-12-31T04:17:19;0.60;;;0.60;;
7693;SDS011;3889;48.162;11.510;2022-12-31T04:19:47;0.50;;;0.50;;
7693;SDS011;3889;48.162;11.510;2022-12-31T04:22:15;0.40;;;0.40;;
7693;SDS011;3889;48.162;11.510;2022-12-31T04:24:43;0.60;;;0.60;;
7693;SDS011;3889;48.162;11.510;2022-12-31T04:27:12;0.50;;;0.50;;
7693;SDS011;3889;48.162;11.510;2022-12-31T04:29:40;0.88;;;0.40;;
7693;SDS011;3889;48.162;11.510;2022-12-31T04:32:08;0.70;;;0.50;;
7693;SDS011;3889;48.162;11.510;2022-12-31T04:34:36;0.50;;;0.50;;
7693;SDS011;3889;48.162;11.510;2022-12-31T04:37:04;0.40;;;0.40;;
7693;SDS011;3889;48.162;11.510;2022-12-31T04:39:31;0.73;;;0.68;;
7693;SDS011;3889;48.162;11.510;2022-12-31T04:41:59;0.50;;;0.50;;
7693;SDS011;3889;48.162;11.510;2022-12-31T04:44:28;0.50;;;0.50;;
7693;SDS011;3889;48.162;11.510;2022-12-31T04:46:59;0.60;;;0.60;;
7693;SDS011;3889;48.162;11.510;2022-12-31T04:49:27;0.50;;;0.50;;
7693;SDS011;3889;48.162;11.510;2022-12-31T04:51:55;0.40;;;0.40;;
7693;SDS011;3889;48.162;11.510;2022-12-31T04:54:23;0.57;;;0.55;;
7693;SDS011;3889;48.162;11.510;2022-12-31T04:56:51;0.65;;;0.52;;
7693;SDS011;3889;48.162;11.510;2022-12-31T04:59:19;0.47;;;0.47;;
7693;SDS011;3889;48.162;11.510;2022-12-31T05:01:48;0.60;;;0.60;;
7693;SDS011;3889;48.162;11.510;2022-12-31T05:04:16;0.40;;;0.40;;
7693;SDS011;3889;48.162;11.510;2022-12-31T05:06:44;0.57;;;0.57;;
7693;SDS011;3889;48.162;11.510;2022-12-31T05:09:12;0.50;;;0.50;;
7693;SDS011;3889;48.162;11.510;2022-12-31T05:11:40;0.60;;;0.50;;
7693;SDS011;3889;48.162;11.510;2022-12-31T05:14:07;0.50;;;0.50;;
7693;SDS011;3889;48.162;11.510;2022-12-31T05:16:36;0.50;;;0.50;;
7693;SDS011;3889;48.162;11.510;2022-12-31T05:19:05;0.70;;;0.50;;
7693;SDS011;3889;48.162;11.510;2022-12-31T05:21:34;0.50;;;0.50;;
7693;SDS011;3889;48.162;11.510;2022-12-31T05:24:02;0.60;;;0.60;;
7693;SDS011;3889;48.162;11.510;2022-12-31T05:26:31;0.50;;;0.50;;
7693;SDS011;3889;48.162;11.510;2022-12-31T05:28:58;0.77;;;0.50;;
7693;SDS011;3889;48.162;11.510;2022-12-31T05:31:26;0.57;;;0.50;;
7693;SDS011;3889;48.162;11.510;2022-12-31T05:33:54;0.50;;;0.50;;
7693;SDS011;3889;48.162;11.510;2022-12-31T05:36:24;0.50;;;0.50;;
7693;SDS011;3889;48.162;11.510;2022-12-31T05:38:51;0.60;;;0.60;;
7693;SDS011;3889;48.162;11.510;2022-12-31T05:41:19;0.77;;;0.50;;
7693;SDS011;3889;48.162;11.510;2022-12-31T05:43:47;0.73;;;0.50;;
7693;SDS011;3889;48.162;11.510;2022-12-31T05:46:16;0.50;;;0.50;;
7693;SDS011;3889;48.162;11.510;2022-12-31T05:48:44;0.50;;;0.50;;
7693;SDS011;3889;48.162;11.510;2022-12-31T05:51:12;0.70;;;0.50;;
7693;SDS011;3889;48.162;11.510;2022-12-31T05:53:41;0.57;;;0.57;;
7693;SDS011;3889;48.162;11.510;2022-12-31T05:56:09;0.45;;;0.45;;
7693;SDS011;3889;48.162;11.510;2022-12-31T05:58:36;0.50;;;0.50;;
7693;SDS011;3889;48.162;11.510;2022-12-31T06:01:04;0.82;;;0.60;;
7693;SDS011;3889;48.162;11.510;2022-12-31T06:03:32;0.60;;;0.50;;
7693;SDS011;3889;48.162;11.510;2022-12-31T06:06:00;0.40;;;0.40;;
7693;SDS011;3889;48.162;11.510;2022-12-31T06:08:28;0.80;;;0.60;;
7693;SDS011;3889;48.162;11.510;2022-12-31T06:10:57;0.75;;;0.50;;
7693;SDS011;3889;48.162;11.510;2022-12-31T06:13:25;0.52;;;0.52;;
7693;SDS011;3889;48.162;11.510;2022-12-31T06:15:53;0.50;;;0.50;;
7693;SDS011;3889;48.162;11.510;2022-12-31T06:18:21;0.50;;;0.50;;
7693;SDS011;3889;48.162;11.510;2022-12-31T06:20:49;0.70;;;0.50;;
7693;SDS011;3889;48.162;11.510;2022-12-31T06:23:17;0.55;;;0.55;;
7693;SDS011;3889;48.162;11.510;2022-12-31T06:25:45;0.60;;;0.60;;
7693;SDS011;3889;48.162;11.510;2022-12-31T06:28:14;0.40;;;0.40;;
7693;SDS011;3889;48.162;11.510;2022-12-31T06:30:46;0.60;;;0.60;;
7693;SDS011;3889;48.162;11.510;2022-12-31T06:33:14;1.02;;;0.50;;
7693;SDS011;3889;48.162;11.510;2022-12-31T06:35:42;0.73;;;0.50;;
7693;SDS011;3889;48.162;11.510;2022-12-31T06:38:09;0.50;;;0.50;;
7693;SDS011;3889;48.162;11.510;2022-12-31T06:40:37;0.90;;;0.70;;
7693;SDS011;3889;48.162;11.510;2022-12-31T06:43:05;0.55;;;0.55;;
7693;SDS011;3889;48.162;11.510;2022-12-31T06:45:34;0.50;;;0.50;;
7693;SDS011;3889;48.162;11.510;2022-12-31T06:48:02;0.80;;;0.80;;
7693;SDS011;3889;48.162;11.510;2022-12-31T06:50:30;0.70;;;0.70;;
7693;SDS011;3889;48.162;11.510;2022-12-31T06:52:58;0.90;;;0.60;;
7693;SDS011;3889;48.162;11.510;2022-12-31T06:55:26;1.40;;;0.60;;
7693;SDS011;3889;48.162;11.510;2022-12-31T06:57:55;0.55;;;0.55;;
7693;SDS011;3889;48.162;11.510;2022-12-31T07:00:23;0.50;;;0.50;;
7693;SDS011;3889;48.162;11.510;2022-12-31T07:02:56;0.90;;;0.70;;
7693;SDS011;3889;48.162;11.510;2022-12-31T07:05:41;0.57;;;0.57;;
7693;SDS011;3889;48.162;11.510;2022-12-31T07:08:16;0.60;;;0.60;;
7693;SDS011;3889;48.162;11.510;2022-12-31T07:10:52;0.70;;;0.70;;
7693;SDS011;3889;48.162;11.510;2022-12-31T07:13:38;0.63;;;0.60;;
7693;SDS011;3889;48.162;11.510;2022-12-31T07:16:22;0.60;;;0.60;;
7693;SDS011;3889;48.162;11.510;2022-12-31T07:19:02;1.00;;;0.60;;
7693;SDS011;3889;48.162;11.510;2022-12-31T07:21:39;0.63;;;0.60;;
7693;SDS011;3889;48.162;11.510;2022-12-31T07:24:08;0.80;;;0.60;;
7693;SDS011;3889;48.162;11.510;2022-12-31T07:26:43;0.70;;;0.60;;
7693;SDS011;3889;48.162;11.510;2022-12-31T07:29:23;0.98;;;0.60;;
7693;SDS011;3889;48.162;11.510;2022-12-31T07:32:07;0.63;;;0.60;;
7693;SDS011;3889;48.162;11.510;2022-12-31T07:34:48;0.60;;;0.60;;
7693;SDS011;3889;48.162;11.510;2022-12-31T07:37:24;0.95;;;0.65;;
7693;SDS011;3889;48.162;11.510;2022-12-31T07:40:01;0.73;;;0.70;;
7693;SDS011;3889;48.162;11.510;2022-12-31T07:42:37;0.50;;;0.50;;
7693;SDS011;3889;48.162;11.510;2022-12-31T07:45:13;0.60;;;0.60;;
7693;SDS011;3889;48.162;11.510;2022-12-31T07:47:45;4.20;;;3.80;;
7693;SDS011;3889;48.162;11.510;2022-12-31T07:50:16;3.20;;;1.88;;
7693;SDS011;3889;48.162;11.510;2022-12-31T07:52:45;1.40;;;0.80;;
7693;SDS011;3889;48.162;11.510;2022-12-31T07:55:13;1.00;;;0.90;;
7693;SDS011;3889;48.162;11.510;2022-12-31T07:57:44;29.83;;;17.65;;
7693;SDS011;3889;48.162;11.510;2022-12-31T08:00:17;26.48;;;16.77;;
7693;SDS011;3889;48.162;11.510;2022-12-31T08:02:53;5.43;;;3.92;;
7693;SDS011;3889;48.162;11.510;2022-12-31T08:05:30;1.45;;;1.10;;
7693;SDS011;3889;48.162;11.510;2022-12-31T08:08:05;0.93;;;0.85;;
7693;SDS011;3889;48.162;11.510;2022-12-31T08:10:43;0.80;;;0.80;;
7693;SDS011;3889;48.162;11.510;2022-12-31T08:13:17;1.87;;;0.70;;
7693;SDS011;3889;48.162;11.510;2022-12-31T08:15:46;1.25;;;0.90;;
7693;SDS011;3889;48.162;11.510;2022-12-31T08:18:14;1.60;;;0.90;;
7693;SDS011;3889;48.162;11.510;2022-12-31T08:20:46;1.05;;;0.95;;
7693;SDS011;3889;48.162;11.510;2022-12-31T08:23:26;1.20;;;1.00;;
7693;SDS011;3889;48.162;11.510;2022-12-31T08:26:13;7.82;;;5.07;;
7693;SDS011;3889;48.162;11.510;2022-12-31T08:29:11;2.43;;;1.70;;
7693;SDS011;3889;48.162;11.510;2022-12-31T08:31:57;4.47;;;2.30;;
7693;SDS011;3889;48.162;11.510;2022-12-31T08:34:31;1.10;;;1.00;;
7693;SDS011;3889;48.162;11.510;2022-12-31T08:37:07;0.77;;;0.77;;
7693;SDS011;3889;48.162;11.510;2022-12-31T08:39:45;1.00;;;0.90;;
7693;SDS011;3889;48.162;11.510;2022-12-31T08:42:21;2.30;;;0.77;;
7693;SDS011;3889;48.162;11.510;2022-12-31T08:44:57;0.77;;;0.77;;
7693;SDS011;3889;48.162;11.510;2022-12-31T08:47:38;0.70;;;0.70;;
7693;SDS011;3889;48.162;11.510;2022-12-31T08:50:12;0.90;;;0.80;;
7693;SDS011;3889;48.162;11.510;2022-12-31T08:52:43;0.70;;;0.70;;
7693;SDS011;3889;48.162;11.510;2022-12-31T08:55:12;0.60;;;0.60;;
7693;SDS011;3889;48.162;11.510;2022-12-31T08:57:44;0.80;;;0.70;;
7693;SDS011;3889;48.162;11.510;2022-12-31T09:00:19;0.57;;;0.57;;
7693;SDS011;3889;48.162;11.510;2022-12-31T09:02:50;0.63;;;0.63;;
7693;SDS011;3889;48.162;11.510;2022-12-31T09:05:45;1.27;;;0.70;;
7693;SDS011;3889;48.162;11.510;2022-12-31T09:08:23;1.00;;;0.80;;
7693;SDS011;3889;48.162;11.510;2022-12-31T09:11:03;1.02;;;0.88;;
7693;SDS011;3889;48.162;11.510;2022-12-31T09:13:59;1.33;;;0.95;;
7693;SDS011;3889;48.162;11.510;2022-12-31T09:16:42;1.23;;;0.80;;
7693;SDS011;3889;48.162;11.510;2022-12-31T09:19:17;0.60;;;0.60;;
7693;SDS011;3889;48.162;11.510;2022-12-31T09:21:45;0.80;;;0.60;;
7693;SDS011;3889;48.162;11.510;2022-12-31T09:24:15;0.63;;;0.63;;
7693;SDS011;3889;48.162;11.510;2022-12-31T09:26:47;2.10;;;1.23;;
7693;SDS011;3889;48.162;11.510;2022-12-31T09:29:27;0.65;;;0.65;;
7693;SDS011;3889;48.162;11.510;2022-12-31T09:32:03;0.50;;;0.50;;
7693;SDS011;3889;48.162;11.510;2022-12-31T09:34:40;0.60;;;0.60;;
7693;SDS011;3889;48.162;11.510;2022-12-31T09:37:14;0.57;;;0.57;;
7693;SDS011;3889;48.162;11.510;2022-12-31T09:39:48;1.00;;;0.70;;
7693;SDS011;3889;48.162;11.510;2022-12-31T09:42:27;1.98;;;1.00;;
7693;SDS011;3889;48.162;11.510;2022-12-31T09:48:20;2.08;;;1.58;;
7693;SDS011;3889;48.162;11.510;2022-12-31T09:51:27;3.15;;;2.08;;
7693;SDS011;3889;48.162;11.510;2022-12-31T09:54:15;2.50;;;1.08;;
7693;SDS011;3889;48.162;11.510;2022-12-31T09:57:16;0.75;;;0.65;;
7693;SDS011;3889;48.162;11.510;2022-12-31T10:00:09;2.80;;;1.60;;
7693;SDS011;3889;48.162;11.510;2022-12-31T10:02:46;0.82;;;0.73;;
7693;SDS011;3889;48.162;11.510;2022-12-31T10:05:45;1.35;;;0.70;;
7693;SDS011;3889;48.162;11.510;2022-12-31T10:08:33;1.05;;;0.90;;
7693;SDS011;3889;48.162;11.510;2022-12-31T10:11:13;0.75;;;0.70;;
7693;SDS011;3889;48.162;11.510;2022-12-31T10:13:49;1.35;;;0.68;;
7693;SDS011;3889;48.162;11.510;2022-12-31T10:16:30;0.60;;;0.60;;
7693;SDS011;3889;48.162;11.510;2022-12-31T10:22:13;1.98;;;0.60;;
7693;SDS011;3889;48.162;11.510;2022-12-31T10:25:03;0.70;;;0.70;;
7693;SDS011;3889;48.162;11.510;2022-12-31T10:27:47;0.70;;;0.60;;
7693;SDS011;3889;48.162;11.510;2022-12-31T10:30:22;3.10;;;1.67;;
7693;SDS011;3889;48.162;11.510;2022-12-31T10:32:54;0.60;;;0.60;;
7693;SDS011;3889;48.162;11.510;2022-12-31T10:35:34;0.60;;;0.60;;
7693;SDS011;3889;48.162;11.510;2022-12-31T10:38:19;0.50;;;0.50;;
7693;SDS011;3889;48.162;11.510;2022-12-31T10:41:02;0.60;;;0.60;;
7693;SDS011;3889;48.162;11.510;2022-12-31T10:44:09;0.63;;;0.50;;
7693;SDS011;3889;48.162;11.510;2022-12-31T10:53:22;2.78;;;1.17;;
7693;SDS011;3889;48.162;11.510;2022-12-31T10:56:24;1.10;;;0.50;;
7693;SDS011;3889;48.162;11.510;2022-12-31T11:12:48;0.60;;;0.60;;
7693;SDS011;3889;48.162;11.510;2022-12-31T11:15:43;0.63;;;0.63;;
7693;SDS011;3889;48.162;11.510;2022-12-31T11:18:25;0.60;;;0.60;;
7693;SDS011;3889;48.162;11.510;2022-12-31T11:21:01;0.55;;;0.55;;
7693;SDS011;3889;48.162;11.510;2022-12-31T11:23:39;0.60;;;0.60;;
7693;SDS011;3889;48.162;11.510;2022-12-31T11:26:17;0.60;;;0.60;;
7693;SDS011;3889;48.162;11.510;2022-12-31T11:29:03;2.10;;;0.80;;
7693;SDS011;3889;48.162;11.510;2022-12-31T11:31:57;0.70;;;0.70;;
7693;SDS011;3889;48.162;11.510;2022-12-31T11:37:35;1.15;;;0.73;;
7693;SDS011;3889;48.162;11.510;2022-12-31T11:43:12;0.70;;;0.70;;
7693;SDS011;3889;48.162;11.510;2022-12-31T11:45:52;1.23;;;0.90;;
7693;SDS011;3889;48.162;11.510;2022-12-31T11:48:35;1.50;;;0.70;;
7693;SDS011;3889;48.162;11.510;2022-12-31T11:51:20;1.10;;;0.70;;
7693;SDS011;3889;48.162;11.510;2022-12-31T11:56:58;1.10;;;0.73;;
7693;SDS011;3889;48.162;11.510;2022-12-31T11:59:33;1.30;;;0.80;;
7693;SDS011;3889;48.162;11.510;2022-12-31T12:02:03;0.60;;;0.60;;
7693;SDS011;3889;48.162;11.510;2022-12-31T12:04:44;1.45;;;0.60;;
7693;SDS011;3889;48.162;11.510;2022-12-31T12:07:16;1.60;;;0.80;;
7693;SDS011;3889;48.162;11.510;2022-12-31T12:09:45;1.50;;;0.80;;
7693;SDS011;3889;48.162;11.510;2022-12-31T12:12:15;1.35;;;0.60;;
7693;SDS011;3889;48.162;11.510;2022-12-31T12:14:48;0.70;;;0.70;;
7693;SDS011;3889;48.162;11.510;2022-12-31T12:17:21;1.50;;;0.73;;
7693;SDS011;3889;48.162;11.510;2022-12-31T12:19:59;1.25;;;0.80;;
7693;SDS011;3889;48.162;11.510;2022-12-31T12:22:30;1.85;;;0.82;;
7693;SDS011;3889;48.162;11.510;2022-12-31T12:25:00;1.98;;;1.25;;
7693;SDS011;3889;48.162;11.510;2022-12-31T12:27:32;1.35;;;0.98;;
7693;SDS011;3889;48.162;11.510;2022-12-31T12:30:10;1.20;;;0.73;;
7693;SDS011;3889;48.162;11.510;2022-12-31T12:32:50;0.77;;;0.70;;
7693;SDS011;3889;48.162;11.510;2022-12-31T12:35:22;1.10;;;0.80;;
7693;SDS011;3889;48.162;11.510;2022-12-31T12:37:59;3.42;;;0.90;;
7693;SDS011;3889;48.162;11.510;2022-12-31T12:40:28;2.77;;;1.17;;
7693;SDS011;3889;48.162;11.510;2022-12-31T12:42:59;1.73;;;1.60;;
7693;SDS011;3889;48.162;11.510;2022-12-31T12:45:37;1.00;;;0.90;;
7693;SDS011;3889;48.162;11.510;2022-12-31T12:48:17;1.17;;;1.05;;
7693;SDS011;3889;48.162;11.510;2022-12-31T12:50:51;1.65;;;1.30;;
7693;SDS011;3889;48.162;11.510;2022-12-31T12:53:23;1.85;;;1.10;;
7693;SDS011;3889;48.162;11.510;2022-12-31T12:56:01;2.17;;;1.63;;
7693;SDS011;3889;48.162;11.510;2022-12-31T12:58:41;1.80;;;1.15;;
7693;SDS011;3889;48.162;11.510;2022-12-31T13:01:24;0.93;;;0.80;;
7693;SDS011;3889;48.162;11.510;2022-12-31T13:04:05;1.20;;;1.10;;
7693;SDS011;3889;48.162;11.510;2022-12-31T13:07:06;1.70;;;0.95;;
7693;SDS011;3889;48.162;11.510;2022-12-31T13:12:34;2.20;;;1.10;;
7693;SDS011;3889;48.162;11.510;2022-12-31T13:15:28;1.20;;;0.82;;
7693;SDS011;3889;48.162;11.510;2022-12-31T13:18:06;1.48;;;1.00;;
7693;SDS011;3889;48.162;11.510;2022-12-31T13:20:44;2.05;;;1.10;;
7693;SDS011;3889;48.162;11.510;2022-12-31T13:23:18;1.35;;;1.10;;
7693;SDS011;3889;48.162;11.510;2022-12-31T13:25:55;2.00;;;0.90;;
7693;SDS011;3889;48.162;11.510;2022-12-31T13:28:31;1.30;;;1.10;;
7693;SDS011;3889;48.162;11.510;2022-12-31T13:31:00;1.42;;;1.10;;
7693;SDS011;3889;48.162;11.510;2022-12-31T13:33:35;1.65;;;1.27;;
7693;SDS011;3889;48.162;11.510;2022-12-31T13:36:06;4.38;;;2.40;;
7693;SDS011;3889;48.162;11.510;2022-12-31T13:38:36;2.10;;;1.20;;
7693;SDS011;3889;48.162;11.510;2022-12-31T13:41:08;3.93;;;2.53;;
7693;SDS011;3889;48.162;11.510;2022-12-31T13:43:42;1.50;;;1.10;;
7693;SDS011;3889;48.162;11.510;2022-12-31T13:46:17;1.00;;;0.90;;
7693;SDS011;3889;48.162;11.510;2022-12-31T13:48:51;1.58;;;1.10;;
7693;SDS011;3889;48.162;11.510;2022-12-31T13:51:26;0.97;;;0.97;;
7693;SDS011;3889;48.162;11.510;2022-12-31T13:54:00;2.88;;;1.95;;
7693;SDS011;3889;48.162;11.510;2022-12-31T13:56:33;5.63;;;3.33;;
7693;SDS011;3889;48.162;11.510;2022-12-31T13:59:04;5.38;;;3.53;;
7693;SDS011;3889;48.162;11.510;2022-12-31T14:01:41;4.60;;;2.20;;
7693;SDS011;3889;48.162;11.510;2022-12-31T14:04:17;1.73;;;1.40;;
7693;SDS011;3889;48.162;11.510;2022-12-31T14:06:52;1.92;;;1.23;;
7693;SDS011;3889;48.162;11.510;2022-12-31T14:09:24;3.45;;;2.08;;
7693;SDS011;3889;48.162;11.510;2022-12-31T14:12:05;1.75;;;1.50;;
7693;SDS011;3889;48.162;11.510;2022-12-31T14:14:45;1.40;;;1.20;;
7693;SDS011;3889;48.162;11.510;2022-12-31T14:17:21;2.22;;;1.50;;
7693;SDS011;3889;48.162;11.510;2022-12-31T14:19:58;1.87;;;1.40;;
7693;SDS011;3889;48.162;11.510;2022-12-31T14:22:33;4.32;;;1.50;;
7693;SDS011;3889;48.162;11.510;2022-12-31T14:25:09;8.43;;;4.60;;
7693;SDS011;3889;48.162;11.510;2022-12-31T14:27:45;3.88;;;1.98;;
7693;SDS011;3889;48.162;11.510;2022-12-31T14:30:15;5.50;;;2.10;;
7693;SDS011;3889;48.162;11.510;2022-12-31T14:32:50;2.88;;;1.70;;
7693;SDS011;3889;48.162;11.510;2022-12-31T14:35:48;3.35;;;1.50;;
7693;SDS011;3889;48.162;11.510;2022-12-31T14:38:35;3.70;;;1.48;;
7693;SDS011;3889;48.162;11.510;2022-12-31T14:41:12;2.15;;;1.40;;
7693;SDS011;3889;48.162;11.510;2022-12-31T14:43:55;1.90;;;1.30;;
7693;SDS011;3889;48.162;11.510;2022-12-31T14:46:32;2.72;;;1.33;;
7693;SDS011;3889;48.162;11.510;2022-12-31T14:49:11;2.17;;;1.38;;
7693;SDS011;3889;48.162;11.510;2022-12-31T14:51:52;3.20;;;1.67;;
7693;SDS011;3889;48.162;11.510;2022-12-31T14:54:24;2.20;;;1.80;;
7693;SDS011;3889;48.162;11.510;2022-12-31T14:56:54;2.97;;;1.70;;
7693;SDS011;3889;48.162;11.510;2022-12-31T14:59:24;3.73;;;1.70;;
7693;SDS011;3889;48.162;11.510;2022-12-31T15:01:53;5.72;;;3.00;;
7693;SDS011;3889;48.162;11.510;2022-12-31T15:04:28;4.90;;;2.83;;
7693;SDS011;3889;48.162;11.510;2022-12-31T15:07:01;11.73;;;5.95;;
7693;SDS011;3889;48.162;11.510;2022-12-31T15:09:55;5.10;;;2.88;;
7693;SDS011;3889;48.162;11.510;2022-12-31T15:12:45;8.07;;;2.70;;
7693;SDS011;3889;48.162;11.510;2022-12-31T15:18:33;5.95;;;2.65;;
7693;SDS011;3889;48.162;11.510;2022-12-31T15:21:19;7.78;;;3.28;;
7693;SDS011;3889;48.162;11.510;2022-12-31T15:24:01;10.13;;;3.20;;
7693;SDS011;3889;48.162;11.510;2022-12-31T15:26:40;5.15;;;2.70;;
7693;SDS011;3889;48.162;11.510;2022-12-31T15:29:28;4.32;;;2.88;;
7693;SDS011;3889;48.162;11.510;2022-12-31T15:31:59;5.13;;;2.53;;
7693;SDS011;3889;48.162;11.510;2022-12-31T15:34:30;4.50;;;2.70;;
7693;SDS011;3889;48.162;11.510;2022-12-31T15:37:00;4.75;;;2.75;;
7693;SDS011;3889;48.162;11.510;2022-12-31T15:39:40;7.80;;;3.00;;
7693;SDS011;3889;48.162;11.510;2022-12-31T15:42:26;3.53;;;2.28;;
7693;SDS011;3889;48.162;11.510;2022-12-31T15:45:10;7.20;;;2.50;;
7693;SDS011;3889;48.162;11.510;2022-12-31T15:47:44;5.87;;;2.53;;
7693;SDS011;3889;48.162;11.510;2022-12-31T15:50:17;5.90;;;2.65;;
7693;SDS011;3889;48.162;11.510;2022-12-31T15:52:49;6.32;;;2.42;;
7693;SDS011;3889;48.162;11.510;2022-12-31T15:55:25;6.43;;;2.45;;
7693;SDS011;3889;48.162;11.510;2022-12-31T15:57:57;5.90;;;2.55;;
7693;SDS011;3889;48.162;11.510;2022-12-31T16:00:28;5.57;;;2.92;;
7693;SDS011;3889;48.162;11.510;2022-12-31T16:03:16;5.38;;;2.20;;
7693;SDS011;3889;48.162;11.510;2022-12-31T16:05:47;5.70;;;2.70;;
7693;SDS011;3889;48.162;11.510;2022-12-31T16:08:17;11.30;;;3.20;;
7693;SDS011;3889;48.162;11.510;2022-12-31T16:10:48;10.00;;;3.00;;
7693;SDS011;3889;48.162;11.510;2022-12-31T16:13:17;9.20;;;3.70;;
7693;SDS011;3889;48.162;11.510;2022-12-31T16:15:48;14.20;;;3.65;;
7693;SDS011;3889;48.162;11.510;2022-12-31T16:18:18;13.63;;;3.40;;
7693;SDS011;3889;48.162;11.510;2022-12-31T16:20:48;10.85;;;3.85;;
7693;SDS011;3889;48.162;11.510;2022-12-31T16:23:20;12.65;;;3.53;;
7693;SDS011;3889;48.162;11.510;2022-12-31T16:25:51;15.13;;;3.88;;
7693;SDS011;3889;48.162;11.510;2022-12-31T16:28:25;11.25;;;3.97;;
7693;SDS011;3889;48.162;11.510;2022-12-31T16:30:57;16.45;;;4.90;;